Česky Dansk Deutsch English Español Suomi Français Magyar Italiano Nederlands norsk Polski Português svenska Türkçe

 

Weather

Cherbourg / Maupertus (France)

13:30, 16 August 2016 (GMT)

NWNNE
WE
SWSSE
Home            
Cherbourg / Maupertus Alderney / Channel Island Jersey Airport Guernsey Airport Caen La Heve Portland / Rnas Dinard Bournemouth Airport Southampton / Weather Centre Vittefleur / St. Vale Shoreham Airport Saint-Brieuc Middle Wallop Boscombe Down Yeovilton Alencon Lannion / Servel Rennes Odiham Exeter Airport Farnborough Farnborough Military

To put a weather button on your web site or blog, copy the code below and paste it into your page . The first box contains HTML code, the second UBB code.


Add to Google

Details

Wind speed:3 bf, 9 kn, 4.6 m/s, 10.4 miles/h, 16.7 km/h
Wind direction:NNE, 030° - E, 090°
Visibility:Greater than 10000 m, 10 km, 32800 ft, 6.2 miles
Clouds:CAVOC
Temperature:20°C, 68°F
Dew-point:14°C, 57°F
Atmospheric pressure:1017 hPa, 762.8 mmHg, 30.03 inHg, 1.004 atm
Relative humidity:68.4 %
METAR:LFRC 161330Z AUTO 06009KT 030V090 CAVOK 20/14 Q1017 NOSIG

Shortcuts

An up-to-date overview of weather conditions all over the world. Add locations with the plus (+) sign. These shortcuts can be added to Google.

Lid van de Technetium groep

website free tracking
StatCounter NetStat W3C Validator

06-10-2022 04:45:38
astro.technetium.be money.technetium.be phote.technetium.be tafeltennistafel.technetium.be www.ligfiets.net